Time;durP1;ratioP1;P1;durP2;ratioP2;P2;SDS_P1;SDS_P2;PMS_P1;PMS_P2;Temp;Humidity;BMP_temperature;BMP_pressure;BME280_temperature;BME280_humidity;BME280_pressure;Samples;Min_cycle;Max_cycle;Signal;HPM_P1;HPM_P2
2023/11/05 00:00:29;;;;;;;1.38;0.52;;;;;;;9.33;100.00;95457.53;5040594;28;20017;-75
2023/11/05 00:02:54;;;;;;;3.58;0.80;;;;;;;9.43;100.00;95463.66;5058815;28;20048;-74
2023/11/05 00:05:21;;;;;;;0.70;0.40;;;;;;;9.38;100.00;95471.78;5059472;28;20074;-74
2023/11/05 00:07:46;;;;;;;1.50;0.30;;;;;;;9.39;100.00;95469.88;5047641;28;20354;-75
2023/11/05 00:10:12;;;;;;;0.70;0.40;;;;;;;9.34;100.00;95459.94;5046915;28;20037;-75
2023/11/05 00:12:37;;;;;;;0.80;0.35;;;;;;;9.28;100.00;95455.66;5064121;28;20257;-74
2023/11/05 00:15:03;;;;;;;0.60;0.30;;;;;;;9.28;100.00;95446.75;5065828;28;20218;-75
2023/11/05 00:17:28;;;;;;;0.85;0.32;;;;;;;9.25;100.00;95440.03;5053172;28;20021;-75
2023/11/05 00:19:53;;;;;;;1.05;0.45;;;;;;;9.35;100.00;95431.88;5039067;28;20013;-74
2023/11/05 00:22:19;;;;;;;1.42;0.30;;;;;;;9.38;100.00;95417.84;5060723;28;20025;-75
2023/11/05 00:24:45;;;;;;;0.88;0.28;;;;;;;9.49;100.00;95428.56;5066880;28;20028;-75
2023/11/05 00:27:10;;;;;;;1.40;0.35;;;;;;;9.46;100.00;95421.84;5075171;28;20029;-75
2023/11/05 00:29:36;;;;;;;1.80;0.45;;;;;;;9.49;100.00;95425.88;5074780;28;20041;-75
2023/11/05 00:32:01;;;;;;;0.50;0.20;;;;;;;9.48;100.00;95410.75;5061996;28;20296;-76
2023/11/05 00:34:26;;;;;;;0.57;0.28;;;;;;;9.49;100.00;95409.69;5038452;28;20064;-74
2023/11/05 00:36:52;;;;;;;1.10;0.40;;;;;;;9.51;100.00;95402.09;5057905;28;20028;-74
2023/11/05 00:39:17;;;;;;;1.65;0.60;;;;;;;9.57;100.00;95393.69;5041650;28;20024;-76
2023/11/05 00:41:42;;;;;;;1.48;0.65;;;;;;;9.55;100.00;95395.06;5052532;28;20045;-75
2023/11/05 00:44:08;;;;;;;0.77;0.20;;;;;;;9.43;100.00;95382.72;5059477;28;20191;-75
2023/11/05 00:46:33;;;;;;;1.13;0.40;;;;;;;9.40;100.00;95366.28;5044911;28;20022;-76
2023/11/05 00:48:58;;;;;;;0.28;0.17;;;;;;;9.44;100.00;95370.84;5064311;28;20028;-76
2023/11/05 00:51:24;;;;;;;0.68;0.20;;;;;;;9.50;100.00;95360.00;5100661;23;20341;-74
2023/11/05 00:53:50;;;;;;;0.90;0.30;;;;;;;9.56;100.00;95372.38;5033576;28;20041;-73
2023/11/05 00:56:15;;;;;;;0.85;0.20;;;;;;;9.52;100.00;95341.66;5036252;28;20116;-75
2023/11/05 00:58:41;;;;;;;0.47;0.20;;;;;;;9.57;100.00;95361.31;5039840;28;20344;-71
2023/11/05 01:01:07;;;;;;;1.92;0.13;;;;;;;9.51;100.00;95353.50;5039880;28;20043;-70
2023/11/05 01:03:32;;;;;;;2.08;0.30;;;;;;;9.48;100.00;95362.19;5021911;28;20022;-70
2023/11/05 01:05:58;;;;;;;0.57;0.20;;;;;;;9.44;100.00;95343.84;5021953;28;20136;-70
2023/11/05 01:08:23;;;;;;;1.60;0.22;;;;;;;9.46;100.00;95348.16;5025628;28;20028;-70
2023/11/05 01:10:49;;;;;;;1.17;0.30;;;;;;;9.34;100.00;95346.63;5024161;28;20033;-70
2023/11/05 01:13:15;;;;;;;1.00;0.30;;;;;;;9.24;100.00;95335.09;5019117;28;20026;-70
2023/11/05 01:15:40;;;;;;;0.80;0.50;;;;;;;9.31;100.00;95343.69;5023450;28;20253;-70
2023/11/05 01:18:05;;;;;;;1.23;0.35;;;;;;;9.32;100.00;95327.22;5023150;28;20034;-70
2023/11/05 01:20:31;;;;;;;3.95;0.40;;;;;;;9.36;100.00;95333.66;5017126;28;20049;-71
2023/11/05 01:22:56;;;;;;;0.88;0.17;;;;;;;9.35;100.00;95337.47;5023446;28;20021;-70
2023/11/05 01:25:21;;;;;;;1.00;0.10;;;;;;;9.27;100.00;95324.53;5023640;28;20049;-70
2023/11/05 01:27:47;;;;;;;0.88;0.10;;;;;;;9.25;100.00;95321.34;5023139;28;20026;-70
2023/11/05 01:30:12;;;;;;;0.57;0.17;;;;;;;9.30;100.00;95312.38;5023475;28;20092;-70
2023/11/05 01:32:38;;;;;;;0.45;0.10;;;;;;;9.38;100.00;95306.41;5022273;28;20096;-70
2023/11/05 01:35:04;;;;;;;3.45;0.38;;;;;;;9.41;100.00;95300.47;5022972;28;20022;-71
2023/11/05 01:37:30;;;;;;;1.77;0.50;;;;;;;9.43;100.00;95291.00;5021078;28;20072;-70
2023/11/05 01:39:56;;;;;;;0.75;0.13;;;;;;;9.52;100.00;95282.28;5021866;28;20570;-70
2023/11/05 01:42:21;;;;;;;0.20;0.00;;;;;;;9.59;100.00;95282.78;5018870;28;20013;-71
2023/11/05 01:44:47;;;;;;;0.95;0.20;;;;;;;9.59;100.00;95277.38;5023552;28;20018;-72
2023/11/05 01:47:12;;;;;;;0.90;0.20;;;;;;;9.79;100.00;95270.97;5025548;28;20057;-70
2023/11/05 01:49:38;;;;;;;0.50;0.20;;;;;;;9.84;100.00;95257.41;5023519;28;20024;-70
2023/11/05 01:52:04;;;;;;;0.77;0.30;;;;;;;9.70;100.00;95222.19;5021699;28;20026;-70
2023/11/05 01:54:29;;;;;;;2.40;0.22;;;;;;;9.83;100.00;95243.13;5021289;28;20029;-70
2023/11/05 01:56:55;;;;;;;0.68;0.20;;;;;;;9.91;100.00;95249.78;5022804;28;20028;-70
2023/11/05 01:59:20;;;;;;;1.40;0.10;;;;;;;9.76;100.00;95244.53;5022076;28;20085;-70
2023/11/05 02:01:48;;;;;;;2.60;0.30;;;;;;;9.83;100.00;95242.31;5023286;28;20040;-71
2023/11/05 02:04:13;;;;;;;0.32;0.15;;;;;;;9.73;100.00;95245.91;5022262;28;20227;-69
2023/11/05 02:06:39;;;;;;;0.82;0.10;;;;;;;9.71;100.00;95236.50;5021275;28;20018;-70
2023/11/05 02:09:04;;;;;;;1.75;0.10;;;;;;;9.81;100.00;95253.38;5021722;28;20052;-70
2023/11/05 02:11:30;;;;;;;1.20;0.38;;;;;;;9.79;100.00;95238.56;5023159;28;20036;-70
2023/11/05 02:13:55;;;;;;;0.20;0.00;;;;;;;9.81;100.00;95233.69;5021832;28;20021;-70
2023/11/05 02:16:22;;;;;;;0.57;0.17;;;;;;;9.89;100.00;95222.25;5022146;28;20036;-70
2023/11/05 02:18:48;;;;;;;0.52;0.00;;;;;;;9.86;100.00;95212.84;5020858;28;20047;-70
2023/11/05 02:21:20;;;;;;;0.30;0.10;;;;;;;9.82;100.00;95206.44;5021534;28;20222;-70
2023/11/05 02:23:48;;;;;;;0.57;0.15;;;;;;;9.96;100.00;95219.22;5018614;28;20048;-70
2023/11/05 02:26:13;;;;;;;0.20;0.10;;;;;;;9.92;100.00;95200.09;5021828;28;20322;-70
2023/11/05 02:28:38;;;;;;;0.55;0.10;;;;;;;10.03;100.00;95188.09;5018642;28;20041;-70
2023/11/05 02:31:04;;;;;;;0.30;0.20;;;;;;;10.05;100.00;95185.09;5020221;28;20346;-70
2023/11/05 02:33:29;;;;;;;0.47;0.17;;;;;;;10.14;100.00;95174.44;5019461;28;20057;-70
2023/11/05 02:35:54;;;;;;;0.57;0.17;;;;;;;10.22;100.00;95171.91;5022947;28;20026;-71
2023/11/05 02:38:20;;;;;;;1.08;0.13;;;;;;;10.19;100.00;95160.88;5017054;28;20030;-71
2023/11/05 02:40:45;;;;;;;0.80;0.30;;;;;;;10.21;100.00;95150.59;5021175;28;20196;-71
2023/11/05 02:43:10;;;;;;;0.32;0.20;;;;;;;10.25;100.00;95160.53;5019335;28;20034;-71
2023/11/05 02:45:37;;;;;;;2.30;0.20;;;;;;;10.28;100.00;95149.16;5021169;28;20022;-72
2023/11/05 02:48:02;;;;;;;1.75;0.47;;;;;;;10.37;100.00;95162.00;5022720;28;20085;-71
2023/11/05 02:50:28;;;;;;;0.65;0.20;;;;;;;10.34;100.00;95151.78;5022369;28;20034;-71
2023/11/05 02:52:53;;;;;;;2.15;0.32;;;;;;;10.39;100.00;95157.13;5021228;28;20195;-71
2023/11/05 02:55:18;;;;;;;1.45;0.30;;;;;;;10.30;100.00;95133.47;5022957;28;20029;-71
2023/11/05 02:57:44;;;;;;;2.17;0.20;;;;;;;10.33;100.00;95139.38;5020611;28;20052;-70
2023/11/05 03:00:10;;;;;;;1.95;0.30;;;;;;;10.37;100.00;95135.00;5022560;28;20021;-71
2023/11/05 03:02:37;;;;;;;2.35;0.57;;;;;;;10.36;100.00;95138.81;5020783;28;20345;-70
2023/11/05 03:05:04;;;;;;;0.43;0.10;;;;;;;10.40;100.00;95121.72;5021398;28;20034;-70
2023/11/05 03:07:30;;;;;;;0.43;0.20;;;;;;;10.47;100.00;95129.44;5022391;28;20021;-70
2023/11/05 03:09:55;;;;;;;6.00;1.00;;;;;;;10.44;100.00;95103.00;5021617;28;20049;-70
2023/11/05 03:12:20;;;;;;;1.23;0.40;;;;;;;10.60;100.00;95107.06;5023081;28;20049;-71
2023/11/05 03:14:45;;;;;;;2.33;0.30;;;;;;;10.57;100.00;95113.06;5015101;28;20222;-70
2023/11/05 03:17:11;;;;;;;3.35;0.40;;;;;;;10.61;100.00;95106.00;5021988;28;20052;-69
2023/11/05 03:19:36;;;;;;;3.20;0.28;;;;;;;10.55;100.00;95092.84;5021233;28;20024;-70
2023/11/05 03:22:01;;;;;;;2.53;0.40;;;;;;;10.60;100.00;95109.78;5020990;28;20052;-70
2023/11/05 03:24:27;;;;;;;0.70;0.30;;;;;;;10.68;100.00;95092.88;5018870;28;20223;-70
2023/11/05 03:26:53;;;;;;;2.10;0.55;;;;;;;10.67;100.00;95091.28;5021688;28;20033;-71
2023/11/05 03:29:18;;;;;;;3.60;0.65;;;;;;;10.58;100.00;95076.84;5017276;28;20021;-71
2023/11/05 03:31:46;;;;;;;2.70;0.50;;;;;;;10.66;100.00;95094.28;5021846;28;20030;-70
2023/11/05 03:34:12;;;;;;;3.35;0.63;;;;;;;10.60;100.00;95074.66;5021540;28;20044;-71
2023/11/05 03:36:37;;;;;;;2.63;0.35;;;;;;;10.67;100.00;95079.69;5017630;28;20030;-70
2023/11/05 03:39:03;;;;;;;2.70;0.60;;;;;;;10.58;100.00;95082.25;5022159;28;20034;-70
2023/11/05 03:41:28;;;;;;;1.80;0.40;;;;;;;10.64;100.00;95089.19;5020157;28;20022;-70
2023/11/05 03:43:53;;;;;;;1.27;0.25;;;;;;;10.50;100.00;95074.81;5025244;28;20172;-71
2023/11/05 03:46:19;;;;;;;1.85;0.40;;;;;;;10.40;100.00;95072.25;5025730;28;20033;-70
2023/11/05 03:48:44;;;;;;;4.90;0.47;;;;;;;10.42;100.00;95073.56;5026670;28;20331;-71
2023/11/05 03:51:14;;;;;;;4.40;0.60;;;;;;;10.45;100.00;95066.78;5028440;28;20089;-70
2023/11/05 03:53:39;;;;;;;;;;;;;;;10.39;100.00;95078.78;5025728;28;20093;-71
2023/11/05 03:56:05;;;;;;;4.40;0.38;;;;;;;10.41;100.00;95079.28;5025657;28;20099;-70
2023/11/05 03:58:30;;;;;;;3.20;0.40;;;;;;;10.41;100.00;95084.69;5025255;28;20088;-71
2023/11/05 04:00:55;;;;;;;3.38;0.50;;;;;;;10.31;100.00;95083.72;5024533;28;20022;-70
2023/11/05 04:03:20;;;;;;;1.83;0.28;;;;;;;10.15;100.00;95089.63;5019815;28;20029;-71
2023/11/05 04:05:46;;;;;;;3.35;0.40;;;;;;;10.02;100.00;95089.25;5022095;28;20026;-69
2023/11/05 04:08:11;;;;;;;2.33;0.30;;;;;;;10.02;100.00;95085.75;5025482;28;20021;-69
2023/11/05 04:10:36;;;;;;;2.00;0.30;;;;;;;10.30;100.00;95075.94;5024421;28;20026;-72
2023/11/05 04:13:02;;;;;;;3.30;0.40;;;;;;;10.26;100.00;95067.56;5024640;28;20105;-70
2023/11/05 04:15:27;;;;;;;2.67;0.30;;;;;;;10.37;100.00;95070.16;5022916;28;20049;-70
2023/11/05 04:17:52;;;;;;;3.42;0.38;;;;;;;10.52;100.00;95076.13;5023949;28;20069;-71
2023/11/05 04:20:18;;;;;;;4.28;0.40;;;;;;;10.45;100.00;95064.06;5025583;28;20076;-70
2023/11/05 04:22:45;;;;;;;0.85;0.28;;;;;;;10.49;100.00;95071.31;5024356;28;20048;-70
2023/11/05 04:25:10;;;;;;;4.57;0.75;;;;;;;10.47;100.00;95070.78;5019031;28;20065;-70
2023/11/05 04:27:35;;;;;;;2.05;0.30;;;;;;;10.46;100.00;95071.09;5025070;28;20033;-70
2023/11/05 04:30:01;;;;;;;2.53;0.20;;;;;;;10.45;100.00;95074.88;5024137;28;20030;-71
2023/11/05 04:32:26;;;;;;;2.78;0.40;;;;;;;10.34;100.00;95076.16;5024326;28;20251;-71
2023/11/05 04:34:51;;;;;;;2.53;0.20;;;;;;;10.39;100.00;95074.16;5023063;28;20077;-70
2023/11/05 04:37:17;;;;;;;0.63;0.30;;;;;;;10.52;100.00;95069.91;5025284;28;20384;-70
2023/11/05 04:39:42;;;;;;;1.75;0.30;;;;;;;10.59;100.00;95069.56;5024913;28;20093;-70
2023/11/05 04:42:09;;;;;;;2.08;0.60;;;;;;;10.55;100.00;95073.94;5025158;28;20033;-71
2023/11/05 04:44:36;;;;;;;3.15;0.43;;;;;;;10.53;100.00;95085.03;5024625;28;20030;-69
2023/11/05 04:47:01;;;;;;;2.88;0.60;;;;;;;10.60;100.00;95074.66;5024667;28;20246;-71
2023/11/05 04:49:27;;;;;;;3.03;0.20;;;;;;;10.67;100.00;95075.06;5023500;28;20031;-71
2023/11/05 04:51:53;;;;;;;3.42;0.28;;;;;;;10.72;100.00;95080.41;5022758;28;20224;-71
2023/11/05 04:54:18;;;;;;;2.22;0.35;;;;;;;10.79;100.00;95079.22;5024324;28;20056;-70
2023/11/05 04:56:43;;;;;;;3.58;0.50;;;;;;;10.85;100.00;95067.22;5023882;28;20022;-70
2023/11/05 04:59:08;;;;;;;2.88;0.50;;;;;;;11.02;100.00;95077.47;5025450;28;20022;-71
2023/11/05 05:01:34;;;;;;;4.63;0.70;;;;;;;11.13;100.00;95081.59;5026781;28;20029;-73
2023/11/05 05:04:00;;;;;;;3.95;0.45;;;;;;;11.12;100.00;95078.09;5024453;28;20342;-71
2023/11/05 05:06:25;;;;;;;3.00;0.40;;;;;;;11.12;100.00;95075.38;5024779;28;20032;-71
2023/11/05 05:08:51;;;;;;;2.72;0.50;;;;;;;11.18;100.00;95086.91;5024538;28;20030;-71
2023/11/05 05:11:16;;;;;;;3.28;0.40;;;;;;;11.25;100.00;95084.63;5024778;28;20373;-71
2023/11/05 05:13:42;;;;;;;2.88;0.55;;;;;;;11.17;100.00;95082.59;5024131;28;20053;-70
2023/11/05 05:16:11;;;;;;;2.90;0.45;;;;;;;11.19;100.00;95078.50;5027132;28;20365;-70
2023/11/05 05:18:37;;;;;;;4.85;1.00;;;;;;;11.16;100.00;95053.94;5023718;28;20033;-70
2023/11/05 05:21:03;;;;;;;4.68;0.35;;;;;;;11.20;100.00;95084.72;5015231;28;20146;-71
2023/11/05 05:23:28;;;;;;;1.75;0.50;;;;;;;11.26;100.00;95080.00;5024038;28;20053;-70
2023/11/05 05:25:53;;;;;;;1.95;0.30;;;;;;;11.26;100.00;95083.50;5021882;28;20085;-71
2023/11/05 05:28:19;;;;;;;2.50;0.28;;;;;;;11.17;100.00;95090.72;5022683;28;20037;-70
2023/11/05 05:30:44;;;;;;;0.85;0.20;;;;;;;11.14;100.00;95097.53;5023323;28;20247;-70
2023/11/05 05:33:09;;;;;;;1.80;0.30;;;;;;;11.13;100.00;95095.94;5017297;28;20212;-71
2023/11/05 05:35:35;;;;;;;0.75;0.30;;;;;;;11.10;100.00;95098.41;5024046;28;20061;-70
2023/11/05 05:38:01;;;;;;;3.53;0.50;;;;;;;11.15;100.00;95101.03;5022726;28;20021;-70
2023/11/05 05:40:26;;;;;;;3.45;0.60;;;;;;;11.24;100.00;95103.84;5023757;28;20022;-70
2023/11/05 05:42:51;;;;;;;5.07;0.57;;;;;;;11.17;100.00;95096.94;5019838;28;20032;-70
2023/11/05 05:45:17;;;;;;;2.40;0.40;;;;;;;11.16;100.00;95102.63;5023234;28;20096;-71
2023/11/05 05:47:43;;;;;;;5.80;0.40;;;;;;;11.14;100.00;95102.16;5023946;28;20077;-71
2023/11/05 05:50:08;;;;;;;2.05;0.47;;;;;;;11.13;100.00;95108.63;5023773;28;20076;-71
2023/11/05 05:52:34;;;;;;;4.03;0.57;;;;;;;11.15;100.00;95112.66;5022173;28;20326;-71
2023/11/05 05:55:00;;;;;;;2.38;0.35;;;;;;;11.03;100.00;95109.66;5023292;28;20080;-71
2023/11/05 05:57:25;;;;;;;7.40;0.70;;;;;;;11.06;100.00;95125.28;5024405;28;20227;-70
2023/11/05 05:59:51;;;;;;;6.28;0.43;;;;;;;11.03;100.00;95125.88;5026703;28;20017;-70
2023/11/05 06:02:17;;;;;;;2.70;0.38;;;;;;;10.97;100.00;95129.75;5021855;28;20022;-70
2023/11/05 06:04:42;;;;;;;1.77;0.40;;;;;;;11.01;100.00;95135.38;5013753;28;20462;-70
2023/11/05 06:07:08;;;;;;;3.65;0.32;;;;;;;10.94;100.00;95133.03;5022473;28;20018;-70
2023/11/05 06:09:33;;;;;;;2.35;0.60;;;;;;;10.89;100.00;95122.31;5023315;28;20024;-70
2023/11/05 06:11:59;;;;;;;1.67;0.38;;;;;;;10.99;100.00;95132.97;5022521;28;20032;-70
2023/11/05 06:14:24;;;;;;;1.00;0.15;;;;;;;10.93;100.00;95121.44;5022459;28;20018;-70
2023/11/05 06:16:49;;;;;;;3.97;0.68;;;;;;;10.93;100.00;95128.75;5022291;28;20024;-70
2023/11/05 06:19:15;;;;;;;4.15;0.47;;;;;;;10.91;100.00;95120.91;5021765;28;20018;-70
2023/11/05 06:21:44;;;;;;;4.90;0.38;;;;;;;10.87;100.00;95130.72;5022986;28;20162;-70
2023/11/05 06:24:11;;;;;;;4.00;0.60;;;;;;;10.89;100.00;95117.69;5021260;28;20072;-70
2023/11/05 06:26:37;;;;;;;0.98;0.25;;;;;;;10.91;100.00;95112.00;5013956;28;20018;-70
2023/11/05 06:29:03;;;;;;;2.05;0.50;;;;;;;10.92;100.00;95119.81;5023014;28;20026;-70
2023/11/05 06:31:29;;;;;;;2.67;0.50;;;;;;;10.94;100.00;95139.25;5018010;28;20227;-70
2023/11/05 06:33:54;;;;;;;1.30;0.40;;;;;;;10.92;100.00;95130.63;5022844;28;20112;-70
2023/11/05 06:36:19;;;;;;;3.30;0.65;;;;;;;10.94;100.00;95124.94;5023244;28;20026;-70
2023/11/05 06:38:45;;;;;;;1.77;0.30;;;;;;;11.05;100.00;95150.69;5021872;28;20018;-70
2023/11/05 06:41:10;;;;;;;2.20;0.30;;;;;;;10.96;100.00;95139.75;5022210;28;20357;-75
2023/11/05 06:43:35;;;;;;;4.18;0.40;;;;;;;10.99;100.00;95146.47;5018422;28;20030;-75
2023/11/05 06:46:01;;;;;;;2.28;0.40;;;;;;;10.98;100.00;95139.47;5020488;28;20025;-75
2023/11/05 06:48:26;;;;;;;1.73;0.30;;;;;;;10.98;100.00;95136.78;5020430;28;20572;-74
2023/11/05 06:50:51;;;;;;;3.50;0.30;;;;;;;10.84;100.00;95125.09;5021749;28;20080;-75
2023/11/05 06:53:17;;;;;;;3.50;0.35;;;;;;;10.93;100.00;95134.94;5033142;28;20029;-74
2023/11/05 06:55:42;;;;;;;0.88;0.30;;;;;;;11.05;100.00;95172.34;5022982;28;20056;-70
2023/11/05 06:58:08;;;;;;;1.23;0.30;;;;;;;11.08;100.00;95152.84;5020733;28;20093;-70
2023/11/05 07:00:34;;;;;;;4.50;0.57;;;;;;;10.97;100.00;95132.44;5021668;28;20014;-75
2023/11/05 07:03:00;;;;;;;2.20;0.30;;;;;;;11.17;100.00;95156.44;5021268;28;20022;-75
2023/11/05 07:05:25;;;;;;;1.70;0.30;;;;;;;10.92;100.00;95124.41;5021753;28;20045;-76
2023/11/05 07:07:52;;;;;;;2.85;0.50;;;;;;;11.07;100.00;95156.63;5022657;28;20025;-74
2023/11/05 07:10:18;;;;;;;0.32;0.10;;;;;;;11.08;100.00;95168.25;5022280;28;20037;-75
2023/11/05 07:12:43;;;;;;;1.08;0.30;;;;;;;11.00;100.00;95158.91;5022908;28;20050;-79
2023/11/05 07:15:10;;;;;;;2.15;0.30;;;;;;;11.08;100.00;95177.19;5017494;28;20093;-76
2023/11/05 07:17:36;;;;;;;1.15;0.35;;;;;;;10.99;100.00;95172.72;5020389;28;20029;-75
2023/11/05 07:20:02;;;;;;;2.53;0.30;;;;;;;10.91;100.00;95177.69;5021505;28;20343;-75
2023/11/05 07:22:27;;;;;;;0.93;0.20;;;;;;;10.66;100.00;95160.00;5021625;28;20319;-73
2023/11/05 07:24:52;;;;;;;1.05;0.20;;;;;;;10.56;100.00;95184.47;5022136;28;20017;-78
2023/11/05 07:27:18;;;;;;;3.35;0.55;;;;;;;10.19;100.00;95187.88;5025763;28;20029;-86
2023/11/05 07:29:44;;;;;;;3.72;0.50;;;;;;;10.03;100.00;95185.38;5022719;28;20326;-79
2023/11/05 07:32:10;;;;;;;2.72;0.52;;;;;;;10.12;100.00;95199.06;5023061;28;20108;-79
2023/11/05 07:34:35;;;;;;;1.55;0.55;;;;;;;10.09;100.00;95205.03;5021686;28;20036;-74
2023/11/05 07:37:01;;;;;;;0.38;0.30;;;;;;;10.24;100.00;95201.31;5013977;28;20219;-76
2023/11/05 07:39:26;;;;;;;0.88;0.22;;;;;;;10.40;100.00;95210.06;5016852;28;20036;-75
2023/11/05 07:41:51;;;;;;;2.15;0.30;;;;;;;10.52;100.00;95218.56;5029186;28;20089;-78
2023/11/05 07:44:17;;;;;;;2.53;0.50;;;;;;;10.59;100.00;95202.00;5017985;28;20018;-76
2023/11/05 07:46:42;;;;;;;2.90;0.30;;;;;;;10.79;100.00;95206.28;5024292;28;20069;-75
2023/11/05 07:49:07;;;;;;;1.23;0.20;;;;;;;11.07;100.00;95220.75;5020406;28;20021;-77
2023/11/05 07:51:33;;;;;;;0.75;0.40;;;;;;;11.20;100.00;95198.34;5021813;28;20060;-75
2023/11/05 07:53:59;;;;;;;0.52;0.20;;;;;;;11.19;100.00;95224.59;5017182;28;20369;-74
2023/11/05 07:56:24;;;;;;;0.47;0.40;;;;;;;11.05;100.00;95221.03;5014778;28;20072;-77
2023/11/05 07:58:50;;;;;;;0.90;0.20;;;;;;;11.12;100.00;95237.69;5022671;28;20319;-77
2023/11/05 08:01:16;;;;;;;1.58;0.50;;;;;;;11.27;100.00;95231.25;5021105;28;20042;-76
2023/11/05 08:03:41;;;;;;;0.55;0.20;;;;;;;11.43;100.00;95237.22;5021080;28;20026;-78
2023/11/05 08:06:07;;;;;;;1.67;0.20;;;;;;;11.59;100.00;95252.09;5021560;28;20022;-76
2023/11/05 08:08:34;;;;;;;2.38;0.20;;;;;;;11.66;100.00;95242.75;5017682;28;20340;-74
2023/11/05 08:10:59;;;;;;;0.40;0.13;;;;;;;11.61;100.00;95260.72;5020924;28;20053;-77
2023/11/05 08:13:25;;;;;;;0.65;0.10;;;;;;;11.68;100.00;95270.34;5001441;28;20327;-74
2023/11/05 08:15:50;;;;;;;0.20;0.03;;;;;;;11.74;100.00;95261.06;5009856;28;20096;-75
2023/11/05 08:18:16;;;;;;;0.38;0.10;;;;;;;11.65;100.00;95260.13;5022057;28;20375;-75
2023/11/05 08:20:41;;;;;;;0.45;0.08;;;;;;;11.68;100.00;95268.44;5022233;28;20025;-73
2023/11/05 08:23:06;;;;;;;0.63;0.10;;;;;;;11.81;100.00;95297.47;5015812;28;20021;-77
2023/11/05 08:25:32;;;;;;;0.10;0.08;;;;;;;11.71;100.00;95280.59;5020923;28;20033;-80
2023/11/05 08:27:57;;;;;;;2.80;0.15;;;;;;;11.75;100.00;95284.31;5022268;28;20033;-78
2023/11/05 08:30:23;;;;;;;0.40;0.10;;;;;;;11.62;100.00;95294.81;5029353;28;20021;-76
2023/11/05 08:32:54;;;;;;;0.65;0.20;;;;;;;11.39;100.00;95287.59;5030457;28;20219;-74
2023/11/05 08:35:19;;;;;;;0.35;0.00;;;;;;;11.26;100.00;95296.47;5010427;28;20052;-73
2023/11/05 08:37:46;;;;;;;0.70;0.10;;;;;;;11.26;100.00;95327.03;5032999;28;20196;-74
2023/11/05 08:40:13;;;;;;;0.75;0.10;;;;;;;11.18;100.00;95343.94;5025375;28;20219;-75
2023/11/05 08:42:39;;;;;;;0.40;0.03;;;;;;;11.01;100.00;95322.81;5026445;28;20048;-79
2023/11/05 08:45:06;;;;;;;1.25;0.10;;;;;;;11.19;100.00;95349.06;5021468;28;20316;-75
2023/11/05 08:47:31;;;;;;;0.93;0.20;;;;;;;11.14;100.00;95332.09;5021195;28;20021;-77
2023/11/05 08:49:57;;;;;;;0.30;0.10;;;;;;;11.35;100.00;95346.94;5021787;28;20041;-73
2023/11/05 08:52:22;;;;;;;2.33;0.20;;;;;;;11.55;100.00;95355.84;5024646;28;20053;-75
2023/11/05 08:54:47;;;;;;;0.38;0.20;;;;;;;11.75;100.00;95360.94;5023055;28;20038;-75
2023/11/05 08:57:13;;;;;;;0.95;0.13;;;;;;;11.73;100.00;95346.09;5021758;28;20065;-73
2023/11/05 08:59:40;;;;;;;1.30;0.20;;;;;;;11.69;100.00;95359.44;5023254;28;20319;-74
2023/11/05 09:02:06;;;;;;;2.25;0.60;;;;;;;11.73;100.00;95351.50;5024023;28;20049;-73
2023/11/05 09:04:31;;;;;;;1.73;0.30;;;;;;;12.00;100.00;95357.06;5023656;28;20119;-76
2023/11/05 09:06:56;;;;;;;2.47;0.65;;;;;;;12.02;100.00;95370.28;5024039;28;20097;-75
2023/11/05 09:09:22;;;;;;;0.68;0.10;;;;;;;11.91;100.00;95383.19;5023940;28;20072;-75
2023/11/05 09:11:47;;;;;;;0.30;0.10;;;;;;;11.90;100.00;95392.44;5027583;28;20393;-74
2023/11/05 09:14:13;;;;;;;0.55;0.20;;;;;;;11.81;100.00;95372.50;5024308;28;20072;-72
2023/11/05 09:16:38;;;;;;;1.20;0.13;;;;;;;11.90;100.00;95413.31;5024268;28;20030;-73
2023/11/05 09:19:04;;;;;;;1.58;0.20;;;;;;;11.88;100.00;95400.06;5024843;28;20231;-79
2023/11/05 09:21:30;;;;;;;0.55;0.13;;;;;;;11.63;100.00;95374.13;5012330;28;20037;-78
2023/11/05 09:23:55;;;;;;;1.65;0.20;;;;;;;11.93;100.00;95408.09;5023098;28;20034;-74
2023/11/05 09:26:22;;;;;;;0.75;0.25;;;;;;;11.95;100.00;95407.81;5024949;28;20037;-74
2023/11/05 09:28:47;;;;;;;0.43;0.20;;;;;;;11.95;100.00;95429.50;5024495;28;20029;-80
2023/11/05 09:31:13;;;;;;;0.10;0.08;;;;;;;11.87;100.00;95436.38;5022580;28;20033;-77
2023/11/05 09:33:39;;;;;;;0.65;0.15;;;;;;;11.79;100.00;95439.72;5020804;28;20057;-78
2023/11/05 09:36:05;;;;;;;0.93;0.10;;;;;;;11.41;100.00;95472.97;5023201;28;20018;-76
2023/11/05 09:38:33;;;;;;;1.02;0.20;;;;;;;11.12;100.00;95485.78;5015018;28;20021;-74
2023/11/05 09:40:58;;;;;;;0.80;0.13;;;;;;;10.76;100.00;95491.56;5023697;28;20121;-76
2023/11/05 09:43:23;;;;;;;0.60;0.20;;;;;;;10.40;100.00;95491.09;5022480;28;20038;-76
2023/11/05 09:45:49;;;;;;;0.25;0.20;;;;;;;10.42;100.00;95526.75;5022373;28;20049;-75
2023/11/05 09:48:16;;;;;;;1.80;0.70;;;;;;;10.36;100.00;95555.72;5020716;28;20034;-76
2023/11/05 09:50:42;;;;;;;1.88;0.35;;;;;;;10.16;100.00;95556.63;5016184;28;20028;-75
2023/11/05 09:53:14;;;;;;;1.20;0.20;;;;;;;10.16;100.00;95555.81;5022333;28;20057;-75
2023/11/05 09:55:41;;;;;;;1.02;0.25;;;;;;;10.15;100.00;95563.13;5023082;28;20049;-76
2023/11/05 09:58:06;;;;;;;1.00;0.20;;;;;;;10.10;100.00;95565.88;5023778;28;20026;-76
2023/11/05 10:00:32;;;;;;;1.17;0.20;;;;;;;10.23;100.00;95575.25;5022898;28;20192;-75
2023/11/05 10:03:18;;;;;;;1.75;0.20;;;;;;;10.36;100.00;95584.63;5029429;28;20031;-75
2023/11/05 10:05:45;;;;;;;2.30;0.13;;;;;;;10.47;100.00;95595.09;5019014;28;20267;-76
2023/11/05 10:08:11;;;;;;;1.40;0.20;;;;;;;10.40;100.00;95585.69;5017827;28;20072;-74
2023/11/05 10:10:41;;;;;;;1.38;0.35;;;;;;;10.45;100.00;95601.84;5031369;28;20021;-73
2023/11/05 10:13:06;;;;;;;4.35;0.13;;;;;;;10.37;100.00;95589.75;5022254;28;20026;-74
2023/11/05 10:15:36;;;;;;;2.85;0.80;;;;;;;10.51;100.00;95596.16;5019278;28;20274;-76
2023/11/05 10:18:03;;;;;;;3.88;1.17;;;;;;;10.42;100.00;95607.84;5033706;28;20060;-75
2023/11/05 10:20:30;;;;;;;1.33;0.20;;;;;;;10.49;100.00;95611.84;5022436;28;20366;-75
2023/11/05 10:23:03;;;;;;;2.08;0.73;;;;;;;10.59;100.00;95608.25;5021889;28;20036;-76
2023/11/05 10:25:29;;;;;;;1.27;0.30;;;;;;;10.77;100.00;95603.22;5020863;28;20026;-75
2023/11/05 10:27:55;;;;;;;1.10;0.20;;;;;;;10.92;100.00;95613.94;5022018;28;20018;-75
2023/11/05 10:30:22;;;;;;;0.57;0.30;;;;;;;11.00;100.00;95607.91;5021209;28;20021;-75
2023/11/05 10:32:48;;;;;;;0.25;0.25;;;;;;;11.04;100.00;95617.06;5023080;28;20193;-77
2023/11/05 10:35:21;;;;;;;0.73;0.40;;;;;;;10.99;100.00;95617.13;5022577;28;20222;-76
2023/11/05 10:37:48;;;;;;;0.63;0.35;;;;;;;11.04;100.00;95625.19;5020581;28;20021;-75
2023/11/05 10:40:17;;;;;;;0.60;0.20;;;;;;;11.01;100.00;95623.06;5020359;28;20196;-75
2023/11/05 10:42:44;;;;;;;2.30;0.35;;;;;;;11.01;100.00;95641.19;5018635;28;20034;-77
2023/11/05 10:45:12;;;;;;;0.25;0.10;;;;;;;11.02;100.00;95630.06;5022695;28;20046;-76
2023/11/05 10:47:37;;;;;;;1.13;0.10;;;;;;;11.32;100.00;95642.53;5013106;28;20256;-74
2023/11/05 10:50:06;;;;;;;1.73;0.30;;;;;;;11.45;100.00;95630.22;5020352;28;20025;-75
2023/11/05 10:52:33;;;;;;;2.70;0.33;;;;;;;11.56;100.00;95626.31;5020925;28;20248;-74
2023/11/05 10:55:06;;;;;;;1.90;0.10;;;;;;;11.97;100.00;95631.28;5021014;28;20310;-75
2023/11/05 10:57:41;;;;;;;0.47;0.20;;;;;;;12.41;100.00;95635.56;5021926;28;20021;-75
2023/11/05 11:00:16;;;;;;;0.80;0.10;;;;;;;12.07;100.00;95631.13;5021330;28;20092;-74
2023/11/05 11:02:42;;;;;;;0.82;0.20;;;;;;;11.76;100.00;95622.56;5036993;28;20029;-74
2023/11/05 11:05:13;;;;;;;0.00;0.00;;;;;;;11.59;100.00;95652.78;5021681;28;20314;-76
2023/11/05 11:07:42;;;;;;;0.17;0.08;;;;;;;11.56;100.00;95650.66;5017384;28;20052;-74
2023/11/05 11:10:12;;;;;;;0.68;0.13;;;;;;;11.61;100.00;95672.28;5023246;28;20021;-74
2023/11/05 11:12:38;;;;;;;0.43;0.30;;;;;;;11.63;100.00;95678.22;5023103;28;20030;-74
2023/11/05 11:15:07;;;;;;;0.50;0.40;;;;;;;11.59;100.00;95662.81;5025661;28;20018;-74
2023/11/05 11:17:34;;;;;;;0.65;0.20;;;;;;;11.69;100.00;95678.16;5037330;28;20215;-74
2023/11/05 11:20:09;;;;;;;3.17;0.15;;;;;;;11.57;100.00;95692.88;5021393;28;20318;-74